sensor_id;sensor_type;location;lat;lon;timestamp;P1;durP1;ratioP1;P2;durP2;ratioP2
71969;SDS011;59838;52.152;5.436;2023-05-07T00:00:18;6.88;;;3.80;;
71969;SDS011;59838;52.152;5.436;2023-05-07T00:02:45;7.15;;;4.45;;
71969;SDS011;59838;52.152;5.436;2023-05-07T00:05:12;6.47;;;4.70;;
71969;SDS011;59838;52.152;5.436;2023-05-07T00:07:40;5.63;;;4.50;;
71969;SDS011;59838;52.152;5.436;2023-05-07T00:10:06;5.03;;;4.53;;
71969;SDS011;59838;52.152;5.436;2023-05-07T00:12:34;4.45;;;3.78;;
71969;SDS011;59838;52.152;5.436;2023-05-07T00:15:04;7.45;;;3.95;;
71969;SDS011;59838;52.152;5.436;2023-05-07T00:17:32;7.80;;;4.43;;
71969;SDS011;59838;52.152;5.436;2023-05-07T00:19:59;6.82;;;4.50;;
71969;SDS011;59838;52.152;5.436;2023-05-07T00:22:26;4.35;;;3.95;;
71969;SDS011;59838;52.152;5.436;2023-05-07T00:24:52;6.43;;;4.30;;
71969;SDS011;59838;52.152;5.436;2023-05-07T00:27:18;5.32;;;4.32;;
71969;SDS011;59838;52.152;5.436;2023-05-07T00:29:45;6.10;;;4.93;;
71969;SDS011;59838;52.152;5.436;2023-05-07T00:32:11;4.18;;;3.78;;
71969;SDS011;59838;52.152;5.436;2023-05-07T00:34:38;6.95;;;4.43;;
71969;SDS011;59838;52.152;5.436;2023-05-07T00:37:05;6.88;;;4.50;;
71969;SDS011;59838;52.152;5.436;2023-05-07T00:39:33;7.90;;;4.65;;
71969;SDS011;59838;52.152;5.436;2023-05-07T00:42:00;5.30;;;4.40;;
71969;SDS011;59838;52.152;5.436;2023-05-07T00:44:26;8.15;;;4.80;;
71969;SDS011;59838;52.152;5.436;2023-05-07T00:46:54;5.72;;;4.60;;
71969;SDS011;59838;52.152;5.436;2023-05-07T00:49:22;6.15;;;5.13;;
71969;SDS011;59838;52.152;5.436;2023-05-07T00:51:49;5.88;;;4.65;;
71969;SDS011;59838;52.152;5.436;2023-05-07T00:54:16;5.63;;;4.60;;
71969;SDS011;59838;52.152;5.436;2023-05-07T00:56:42;5.35;;;4.57;;
71969;SDS011;59838;52.152;5.436;2023-05-07T00:59:10;5.13;;;4.18;;
71969;SDS011;59838;52.152;5.436;2023-05-07T01:01:36;8.88;;;5.30;;
71969;SDS011;59838;52.152;5.436;2023-05-07T01:04:03;7.07;;;4.43;;
71969;SDS011;59838;52.152;5.436;2023-05-07T01:06:30;5.30;;;4.80;;
71969;SDS011;59838;52.152;5.436;2023-05-07T01:08:59;6.80;;;4.60;;
71969;SDS011;59838;52.152;5.436;2023-05-07T01:11:26;5.00;;;4.47;;
71969;SDS011;59838;52.152;5.436;2023-05-07T01:13:53;5.85;;;4.53;;
71969;SDS011;59838;52.152;5.436;2023-05-07T01:16:20;4.32;;;3.92;;
71969;SDS011;59838;52.152;5.436;2023-05-07T01:18:46;6.73;;;4.60;;
71969;SDS011;59838;52.152;5.436;2023-05-07T01:21:15;5.53;;;4.47;;
71969;SDS011;59838;52.152;5.436;2023-05-07T01:23:44;7.25;;;4.68;;
71969;SDS011;59838;52.152;5.436;2023-05-07T01:26:11;4.38;;;3.92;;
71969;SDS011;59838;52.152;5.436;2023-05-07T01:28:37;5.63;;;4.47;;
71969;SDS011;59838;52.152;5.436;2023-05-07T01:31:04;7.10;;;4.37;;
71969;SDS011;59838;52.152;5.436;2023-05-07T01:33:33;5.90;;;4.65;;
71969;SDS011;59838;52.152;5.436;2023-05-07T01:36:02;6.47;;;4.20;;
71969;SDS011;59838;52.152;5.436;2023-05-07T01:38:32;10.80;;;4.80;;
71969;SDS011;59838;52.152;5.436;2023-05-07T01:40:59;6.45;;;5.07;;
71969;SDS011;59838;52.152;5.436;2023-05-07T01:43:26;4.87;;;4.40;;
71969;SDS011;59838;52.152;5.436;2023-05-07T01:45:52;6.32;;;4.50;;
71969;SDS011;59838;52.152;5.436;2023-05-07T01:48:19;9.95;;;4.65;;
71969;SDS011;59838;52.152;5.436;2023-05-07T01:50:47;5.07;;;4.47;;
71969;SDS011;59838;52.152;5.436;2023-05-07T01:53:14;7.20;;;4.60;;
71969;SDS011;59838;52.152;5.436;2023-05-07T01:55:41;4.33;;;3.90;;
71969;SDS011;59838;52.152;5.436;2023-05-07T01:58:07;5.25;;;4.75;;
71969;SDS011;59838;52.152;5.436;2023-05-07T02:00:34;5.10;;;3.72;;
71969;SDS011;59838;52.152;5.436;2023-05-07T02:03:00;5.57;;;3.67;;
71969;SDS011;59838;52.152;5.436;2023-05-07T02:05:27;4.40;;;3.33;;
71969;SDS011;59838;52.152;5.436;2023-05-07T02:07:54;4.13;;;3.73;;
71969;SDS011;59838;52.152;5.436;2023-05-07T02:10:20;4.38;;;3.97;;
71969;SDS011;59838;52.152;5.436;2023-05-07T02:12:47;7.60;;;4.70;;
71969;SDS011;59838;52.152;5.436;2023-05-07T02:15:14;5.15;;;4.30;;
71969;SDS011;59838;52.152;5.436;2023-05-07T02:17:57;5.43;;;4.13;;
71969;SDS011;59838;52.152;5.436;2023-05-07T02:20:26;6.00;;;4.00;;
71969;SDS011;59838;52.152;5.436;2023-05-07T02:22:52;5.00;;;4.40;;
71969;SDS011;59838;52.152;5.436;2023-05-07T02:25:19;5.82;;;4.30;;
71969;SDS011;59838;52.152;5.436;2023-05-07T02:27:45;4.32;;;3.97;;
71969;SDS011;59838;52.152;5.436;2023-05-07T02:30:13;5.03;;;4.53;;
71969;SDS011;59838;52.152;5.436;2023-05-07T02:32:40;6.63;;;4.80;;
71969;SDS011;59838;52.152;5.436;2023-05-07T02:35:06;7.07;;;5.43;;
71969;SDS011;59838;52.152;5.436;2023-05-07T02:37:34;8.07;;;5.70;;
71969;SDS011;59838;52.152;5.436;2023-05-07T02:40:01;5.85;;;5.25;;
71969;SDS011;59838;52.152;5.436;2023-05-07T02:42:29;6.15;;;4.88;;
71969;SDS011;59838;52.152;5.436;2023-05-07T02:44:56;5.80;;;5.27;;
71969;SDS011;59838;52.152;5.436;2023-05-07T02:47:22;7.50;;;5.63;;
71969;SDS011;59838;52.152;5.436;2023-05-07T02:49:49;6.28;;;5.57;;
71969;SDS011;59838;52.152;5.436;2023-05-07T02:52:15;5.70;;;5.10;;
71969;SDS011;59838;52.152;5.436;2023-05-07T02:54:42;7.43;;;5.45;;
71969;SDS011;59838;52.152;5.436;2023-05-07T02:57:08;6.13;;;4.93;;
71969;SDS011;59838;52.152;5.436;2023-05-07T02:59:35;5.57;;;4.10;;
71969;SDS011;59838;52.152;5.436;2023-05-07T03:02:01;6.57;;;5.55;;
71969;SDS011;59838;52.152;5.436;2023-05-07T03:04:28;6.38;;;5.72;;
71969;SDS011;59838;52.152;5.436;2023-05-07T03:06:55;5.45;;;4.95;;
71969;SDS011;59838;52.152;5.436;2023-05-07T03:09:21;5.20;;;4.67;;
71969;SDS011;59838;52.152;5.436;2023-05-07T03:11:48;6.18;;;5.25;;
71969;SDS011;59838;52.152;5.436;2023-05-07T03:14:14;6.45;;;4.50;;
71969;SDS011;59838;52.152;5.436;2023-05-07T03:16:41;7.97;;;4.78;;
71969;SDS011;59838;52.152;5.436;2023-05-07T03:19:07;7.68;;;5.03;;
71969;SDS011;59838;52.152;5.436;2023-05-07T03:21:34;5.37;;;4.87;;
71969;SDS011;59838;52.152;5.436;2023-05-07T03:24:01;6.55;;;5.47;;
71969;SDS011;59838;52.152;5.436;2023-05-07T03:26:27;6.18;;;5.25;;
71969;SDS011;59838;52.152;5.436;2023-05-07T03:28:54;6.55;;;5.95;;
71969;SDS011;59838;52.152;5.436;2023-05-07T03:31:21;5.95;;;5.40;;
71969;SDS011;59838;52.152;5.436;2023-05-07T03:33:55;5.97;;;5.20;;
71969;SDS011;59838;52.152;5.436;2023-05-07T03:36:23;5.50;;;5.00;;
71969;SDS011;59838;52.152;5.436;2023-05-07T03:38:49;7.53;;;4.90;;
71969;SDS011;59838;52.152;5.436;2023-05-07T03:41:16;5.03;;;4.53;;
71969;SDS011;59838;52.152;5.436;2023-05-07T03:43:43;8.38;;;5.13;;
71969;SDS011;59838;52.152;5.436;2023-05-07T03:46:09;6.40;;;5.90;;
71969;SDS011;59838;52.152;5.436;2023-05-07T03:48:36;6.18;;;5.47;;
71969;SDS011;59838;52.152;5.436;2023-05-07T03:51:02;8.52;;;5.40;;
71969;SDS011;59838;52.152;5.436;2023-05-07T03:53:29;9.65;;;5.97;;
71969;SDS011;59838;52.152;5.436;2023-05-07T03:55:56;5.45;;;4.95;;
71969;SDS011;59838;52.152;5.436;2023-05-07T03:58:23;6.33;;;5.73;;
71969;SDS011;59838;52.152;5.436;2023-05-07T04:00:49;6.60;;;5.88;;
71969;SDS011;59838;52.152;5.436;2023-05-07T04:03:16;14.10;;;6.30;;
71969;SDS011;59838;52.152;5.436;2023-05-07T04:05:43;13.15;;;6.53;;
71969;SDS011;59838;52.152;5.436;2023-05-07T04:08:10;13.15;;;6.70;;
71969;SDS011;59838;52.152;5.436;2023-05-07T04:10:36;10.10;;;7.17;;
71969;SDS011;59838;52.152;5.436;2023-05-07T04:13:03;9.20;;;7.68;;
71969;SDS011;59838;52.152;5.436;2023-05-07T04:15:29;9.27;;;7.45;;
71969;SDS011;59838;52.152;5.436;2023-05-07T04:17:56;9.27;;;6.88;;
71969;SDS011;59838;52.152;5.436;2023-05-07T04:20:23;10.30;;;6.03;;
71969;SDS011;59838;52.152;5.436;2023-05-07T04:22:49;9.07;;;6.77;;
71969;SDS011;59838;52.152;5.436;2023-05-07T04:25:16;10.73;;;7.50;;
71969;SDS011;59838;52.152;5.436;2023-05-07T04:27:42;10.60;;;7.60;;
71969;SDS011;59838;52.152;5.436;2023-05-07T04:30:09;8.10;;;6.97;;
71969;SDS011;59838;52.152;5.436;2023-05-07T04:32:36;9.85;;;7.85;;
71969;SDS011;59838;52.152;5.436;2023-05-07T04:35:03;12.30;;;8.27;;
71969;SDS011;59838;52.152;5.436;2023-05-07T04:37:31;10.80;;;7.95;;
71969;SDS011;59838;52.152;5.436;2023-05-07T04:39:58;10.05;;;7.88;;
71969;SDS011;59838;52.152;5.436;2023-05-07T04:42:25;10.00;;;7.68;;
71969;SDS011;59838;52.152;5.436;2023-05-07T04:44:52;11.38;;;8.23;;
71969;SDS011;59838;52.152;5.436;2023-05-07T04:47:19;14.20;;;8.73;;
71969;SDS011;59838;52.152;5.436;2023-05-07T04:49:46;12.35;;;8.43;;
71969;SDS011;59838;52.152;5.436;2023-05-07T04:52:12;10.93;;;8.60;;
71969;SDS011;59838;52.152;5.436;2023-05-07T04:54:39;10.88;;;7.90;;
71969;SDS011;59838;52.152;5.436;2023-05-07T04:57:05;9.82;;;7.75;;
71969;SDS011;59838;52.152;5.436;2023-05-07T04:59:32;10.47;;;8.33;;
71969;SDS011;59838;52.152;5.436;2023-05-07T05:01:59;10.48;;;7.93;;
71969;SDS011;59838;52.152;5.436;2023-05-07T05:04:25;10.10;;;8.13;;
71969;SDS011;59838;52.152;5.436;2023-05-07T05:06:52;11.18;;;8.85;;
71969;SDS011;59838;52.152;5.436;2023-05-07T05:09:18;13.98;;;9.63;;
71969;SDS011;59838;52.152;5.436;2023-05-07T05:11:45;10.33;;;8.77;;
71969;SDS011;59838;52.152;5.436;2023-05-07T05:14:12;13.35;;;10.02;;
71969;SDS011;59838;52.152;5.436;2023-05-07T05:16:38;13.93;;;9.23;;
71969;SDS011;59838;52.152;5.436;2023-05-07T05:19:05;10.00;;;8.70;;
71969;SDS011;59838;52.152;5.436;2023-05-07T05:21:31;12.90;;;9.35;;
71969;SDS011;59838;52.152;5.436;2023-05-07T05:23:58;13.93;;;9.50;;
71969;SDS011;59838;52.152;5.436;2023-05-07T05:26:24;12.80;;;9.30;;
71969;SDS011;59838;52.152;5.436;2023-05-07T05:28:52;12.13;;;9.30;;
71969;SDS011;59838;52.152;5.436;2023-05-07T05:31:18;12.95;;;8.93;;
71969;SDS011;59838;52.152;5.436;2023-05-07T05:33:45;15.57;;;11.35;;
71969;SDS011;59838;52.152;5.436;2023-05-07T05:36:11;13.83;;;9.67;;
71969;SDS011;59838;52.152;5.436;2023-05-07T05:38:39;12.57;;;9.27;;
71969;SDS011;59838;52.152;5.436;2023-05-07T05:41:06;15.15;;;9.43;;
71969;SDS011;59838;52.152;5.436;2023-05-07T05:43:33;15.88;;;8.80;;
71969;SDS011;59838;52.152;5.436;2023-05-07T05:45:59;14.43;;;9.18;;
71969;SDS011;59838;52.152;5.436;2023-05-07T05:48:28;14.67;;;9.83;;
71969;SDS011;59838;52.152;5.436;2023-05-07T05:50:55;21.58;;;10.20;;
71969;SDS011;59838;52.152;5.436;2023-05-07T05:53:21;12.77;;;9.43;;
71969;SDS011;59838;52.152;5.436;2023-05-07T05:55:48;13.52;;;9.35;;
71969;SDS011;59838;52.152;5.436;2023-05-07T05:58:15;14.80;;;10.20;;
71969;SDS011;59838;52.152;5.436;2023-05-07T06:00:42;12.33;;;9.63;;
71969;SDS011;59838;52.152;5.436;2023-05-07T06:03:08;15.48;;;9.43;;
71969;SDS011;59838;52.152;5.436;2023-05-07T06:05:35;23.33;;;10.55;;
71969;SDS011;59838;52.152;5.436;2023-05-07T06:08:01;11.38;;;8.68;;
71969;SDS011;59838;52.152;5.436;2023-05-07T06:10:28;18.77;;;9.57;;
71969;SDS011;59838;52.152;5.436;2023-05-07T06:12:56;11.20;;;8.70;;
71969;SDS011;59838;52.152;5.436;2023-05-07T06:15:22;12.63;;;9.65;;
71969;SDS011;59838;52.152;5.436;2023-05-07T06:17:49;11.55;;;9.57;;
71969;SDS011;59838;52.152;5.436;2023-05-07T06:20:15;15.30;;;9.80;;
71969;SDS011;59838;52.152;5.436;2023-05-07T06:22:42;12.25;;;9.60;;
71969;SDS011;59838;52.152;5.436;2023-05-07T06:25:08;14.87;;;8.70;;
71969;SDS011;59838;52.152;5.436;2023-05-07T06:27:35;13.23;;;9.68;;
71969;SDS011;59838;52.152;5.436;2023-05-07T06:30:01;14.20;;;9.68;;
71969;SDS011;59838;52.152;5.436;2023-05-07T06:32:28;12.40;;;9.20;;
71969;SDS011;59838;52.152;5.436;2023-05-07T06:34:55;11.73;;;9.50;;
71969;SDS011;59838;52.152;5.436;2023-05-07T06:37:22;18.87;;;11.17;;
71969;SDS011;59838;52.152;5.436;2023-05-07T06:39:49;17.15;;;9.95;;
71969;SDS011;59838;52.152;5.436;2023-05-07T06:42:15;15.98;;;10.48;;
71969;SDS011;59838;52.152;5.436;2023-05-07T06:44:42;17.80;;;9.30;;
71969;SDS011;59838;52.152;5.436;2023-05-07T06:47:08;11.02;;;9.75;;
71969;SDS011;59838;52.152;5.436;2023-05-07T06:49:35;13.00;;;9.90;;
71969;SDS011;59838;52.152;5.436;2023-05-07T06:52:01;11.88;;;9.48;;
71969;SDS011;59838;52.152;5.436;2023-05-07T06:54:28;13.55;;;9.70;;
71969;SDS011;59838;52.152;5.436;2023-05-07T06:56:55;12.52;;;10.40;;
71969;SDS011;59838;52.152;5.436;2023-05-07T06:59:21;14.20;;;9.60;;
71969;SDS011;59838;52.152;5.436;2023-05-07T07:01:48;17.47;;;9.63;;
71969;SDS011;59838;52.152;5.436;2023-05-07T07:04:14;15.38;;;10.07;;
71969;SDS011;59838;52.152;5.436;2023-05-07T07:06:41;12.13;;;9.75;;
71969;SDS011;59838;52.152;5.436;2023-05-07T07:09:07;14.57;;;10.38;;
71969;SDS011;59838;52.152;5.436;2023-05-07T07:11:34;17.17;;;10.93;;
71969;SDS011;59838;52.152;5.436;2023-05-07T07:14:00;14.70;;;10.80;;
71969;SDS011;59838;52.152;5.436;2023-05-07T07:16:27;12.68;;;10.73;;
71969;SDS011;59838;52.152;5.436;2023-05-07T07:18:53;12.80;;;10.00;;
71969;SDS011;59838;52.152;5.436;2023-05-07T07:21:20;19.35;;;10.05;;
71969;SDS011;59838;52.152;5.436;2023-05-07T07:23:47;19.73;;;11.30;;
71969;SDS011;59838;52.152;5.436;2023-05-07T07:26:13;17.47;;;10.73;;
71969;SDS011;59838;52.152;5.436;2023-05-07T07:28:45;12.57;;;10.05;;
71969;SDS011;59838;52.152;5.436;2023-05-07T07:31:12;13.48;;;10.38;;
71969;SDS011;59838;52.152;5.436;2023-05-07T07:33:39;13.85;;;10.20;;
71969;SDS011;59838;52.152;5.436;2023-05-07T07:36:06;13.85;;;9.60;;
71969;SDS011;59838;52.152;5.436;2023-05-07T07:38:33;14.77;;;10.33;;
71969;SDS011;59838;52.152;5.436;2023-05-07T07:41:00;13.82;;;10.82;;
71969;SDS011;59838;52.152;5.436;2023-05-07T07:43:27;15.35;;;10.52;;
71969;SDS011;59838;52.152;5.436;2023-05-07T07:45:54;16.02;;;10.95;;
71969;SDS011;59838;52.152;5.436;2023-05-07T07:48:20;12.43;;;10.23;;
71969;SDS011;59838;52.152;5.436;2023-05-07T07:50:50;11.67;;;10.43;;
71969;SDS011;59838;52.152;5.436;2023-05-07T07:53:17;16.10;;;10.07;;
71969;SDS011;59838;52.152;5.436;2023-05-07T07:55:44;13.55;;;10.02;;
71969;SDS011;59838;52.152;5.436;2023-05-07T07:58:11;21.13;;;10.38;;
71969;SDS011;59838;52.152;5.436;2023-05-07T08:00:38;16.17;;;10.35;;
71969;SDS011;59838;52.152;5.436;2023-05-07T08:03:04;16.37;;;10.33;;
71969;SDS011;59838;52.152;5.436;2023-05-07T08:05:33;20.58;;;10.25;;
71969;SDS011;59838;52.152;5.436;2023-05-07T08:07:59;12.80;;;10.63;;
71969;SDS011;59838;52.152;5.436;2023-05-07T08:10:26;15.48;;;10.77;;
71969;SDS011;59838;52.152;5.436;2023-05-07T08:12:52;15.07;;;10.23;;
71969;SDS011;59838;52.152;5.436;2023-05-07T08:15:19;11.60;;;10.40;;
71969;SDS011;59838;52.152;5.436;2023-05-07T08:17:46;12.10;;;10.18;;
71969;SDS011;59838;52.152;5.436;2023-05-07T08:20:13;20.00;;;11.15;;
71969;SDS011;59838;52.152;5.436;2023-05-07T08:22:40;20.35;;;10.98;;
71969;SDS011;59838;52.152;5.436;2023-05-07T08:25:07;18.67;;;11.48;;
71969;SDS011;59838;52.152;5.436;2023-05-07T08:27:33;18.03;;;11.50;;
71969;SDS011;59838;52.152;5.436;2023-05-07T08:30:00;15.95;;;12.13;;
71969;SDS011;59838;52.152;5.436;2023-05-07T08:32:26;14.30;;;11.43;;
71969;SDS011;59838;52.152;5.436;2023-05-07T08:34:53;22.80;;;11.60;;
71969;SDS011;59838;52.152;5.436;2023-05-07T08:37:20;13.20;;;11.85;;
71969;SDS011;59838;52.152;5.436;2023-05-07T08:39:46;18.43;;;14.20;;
71969;SDS011;59838;52.152;5.436;2023-05-07T08:42:13;17.17;;;12.80;;
71969;SDS011;59838;52.152;5.436;2023-05-07T08:44:42;23.77;;;13.10;;
71969;SDS011;59838;52.152;5.436;2023-05-07T08:47:13;22.00;;;12.73;;
71969;SDS011;59838;52.152;5.436;2023-05-07T08:49:39;14.68;;;12.07;;
71969;SDS011;59838;52.152;5.436;2023-05-07T08:52:06;18.47;;;12.90;;
71969;SDS011;59838;52.152;5.436;2023-05-07T08:54:36;25.40;;;13.82;;
71969;SDS011;59838;52.152;5.436;2023-05-07T08:57:03;31.92;;;13.20;;
71969;SDS011;59838;52.152;5.436;2023-05-07T08:59:30;22.80;;;12.57;;
71969;SDS011;59838;52.152;5.436;2023-05-07T09:01:56;17.88;;;14.10;;
71969;SDS011;59838;52.152;5.436;2023-05-07T09:04:23;22.27;;;13.03;;
71969;SDS011;59838;52.152;5.436;2023-05-07T09:06:49;24.92;;;13.13;;
71969;SDS011;59838;52.152;5.436;2023-05-07T09:09:17;20.23;;;13.02;;
71969;SDS011;59838;52.152;5.436;2023-05-07T09:11:46;24.00;;;13.48;;
71969;SDS011;59838;52.152;5.436;2023-05-07T09:14:13;20.60;;;13.07;;
71969;SDS011;59838;52.152;5.436;2023-05-07T09:16:39;22.87;;;13.93;;
71969;SDS011;59838;52.152;5.436;2023-05-07T09:19:06;25.75;;;13.50;;
71969;SDS011;59838;52.152;5.436;2023-05-07T09:21:33;17.60;;;13.90;;
71969;SDS011;59838;52.152;5.436;2023-05-07T09:23:59;18.33;;;13.93;;
71969;SDS011;59838;52.152;5.436;2023-05-07T09:26:26;19.25;;;11.45;;
71969;SDS011;59838;52.152;5.436;2023-05-07T09:28:54;18.57;;;11.73;;
71969;SDS011;59838;52.152;5.436;2023-05-07T09:31:21;17.65;;;12.23;;
71969;SDS011;59838;52.152;5.436;2023-05-07T09:33:49;16.20;;;12.43;;
71969;SDS011;59838;52.152;5.436;2023-05-07T09:36:16;20.60;;;12.07;;
71969;SDS011;59838;52.152;5.436;2023-05-07T09:38:43;21.55;;;12.13;;
71969;SDS011;59838;52.152;5.436;2023-05-07T09:41:11;18.87;;;11.67;;
71969;SDS011;59838;52.152;5.436;2023-05-07T09:43:39;16.45;;;10.55;;
71969;SDS011;59838;52.152;5.436;2023-05-07T09:46:07;21.38;;;13.45;;
71969;SDS011;59838;52.152;5.436;2023-05-07T09:48:35;20.33;;;10.35;;
71969;SDS011;59838;52.152;5.436;2023-05-07T09:51:05;16.55;;;11.00;;
71969;SDS011;59838;52.152;5.436;2023-05-07T09:53:37;14.53;;;11.57;;
71969;SDS011;59838;52.152;5.436;2023-05-07T09:56:06;15.15;;;9.05;;
71969;SDS011;59838;52.152;5.436;2023-05-07T09:58:33;13.55;;;10.25;;
71969;SDS011;59838;52.152;5.436;2023-05-07T10:01:02;14.07;;;9.88;;
71969;SDS011;59838;52.152;5.436;2023-05-07T10:03:30;22.95;;;9.00;;
71969;SDS011;59838;52.152;5.436;2023-05-07T10:05:59;14.00;;;9.57;;
71969;SDS011;59838;52.152;5.436;2023-05-07T10:08:27;20.65;;;10.23;;
71969;SDS011;59838;52.152;5.436;2023-05-07T10:10:54;18.67;;;9.40;;
71969;SDS011;59838;52.152;5.436;2023-05-07T10:13:20;11.75;;;9.00;;
71969;SDS011;59838;52.152;5.436;2023-05-07T10:15:47;17.35;;;9.27;;
71969;SDS011;59838;52.152;5.436;2023-05-07T10:18:14;14.43;;;9.83;;
71969;SDS011;59838;52.152;5.436;2023-05-07T10:20:41;13.45;;;8.50;;
71969;SDS011;59838;52.152;5.436;2023-05-07T10:23:12;17.05;;;9.82;;
71969;SDS011;59838;52.152;5.436;2023-05-07T10:25:40;17.45;;;9.93;;
71969;SDS011;59838;52.152;5.436;2023-05-07T10:28:08;18.90;;;10.05;;
71969;SDS011;59838;52.152;5.436;2023-05-07T10:33:15;16.60;;;9.50;;
71969;SDS011;59838;52.152;5.436;2023-05-07T10:35:45;20.40;;;9.48;;
71969;SDS011;59838;52.152;5.436;2023-05-07T10:38:13;13.20;;;10.15;;
71969;SDS011;59838;52.152;5.436;2023-05-07T10:40:40;18.10;;;10.57;;
71969;SDS011;59838;52.152;5.436;2023-05-07T10:43:06;12.47;;;9.90;;
71969;SDS011;59838;52.152;5.436;2023-05-07T10:45:36;12.25;;;9.77;;
71969;SDS011;59838;52.152;5.436;2023-05-07T10:48:06;19.90;;;10.88;;
71969;SDS011;59838;52.152;5.436;2023-05-07T10:50:45;12.73;;;9.63;;
71969;SDS011;59838;52.152;5.436;2023-05-07T10:55:46;13.50;;;9.87;;
71969;SDS011;59838;52.152;5.436;2023-05-07T10:58:23;13.30;;;10.75;;
71969;SDS011;59838;52.152;5.436;2023-05-07T11:01:01;15.63;;;10.10;;
71969;SDS011;59838;52.152;5.436;2023-05-07T11:03:28;12.50;;;10.27;;
71969;SDS011;59838;52.152;5.436;2023-05-07T11:06:08;16.95;;;10.73;;
71969;SDS011;59838;52.152;5.436;2023-05-07T11:08:56;15.63;;;11.77;;
71969;SDS011;59838;52.152;5.436;2023-05-07T11:17:07;16.35;;;11.82;;
71969;SDS011;59838;52.152;5.436;2023-05-07T11:19:50;15.93;;;10.95;;
71969;SDS011;59838;52.152;5.436;2023-05-07T11:24:59;15.77;;;12.27;;
71969;SDS011;59838;52.152;5.436;2023-05-07T11:27:26;14.77;;;11.50;;
71969;SDS011;59838;52.152;5.436;2023-05-07T11:29:53;16.10;;;12.40;;
71969;SDS011;59838;52.152;5.436;2023-05-07T11:32:26;14.95;;;12.45;;
71969;SDS011;59838;52.152;5.436;2023-05-07T11:34:58;14.70;;;12.13;;
71969;SDS011;59838;52.152;5.436;2023-05-07T11:37:26;15.13;;;11.32;;
71969;SDS011;59838;52.152;5.436;2023-05-07T11:40:05;18.55;;;13.40;;
71969;SDS011;59838;52.152;5.436;2023-05-07T11:42:34;16.80;;;12.32;;
71969;SDS011;59838;52.152;5.436;2023-05-07T11:45:04;17.13;;;12.25;;
71969;SDS011;59838;52.152;5.436;2023-05-07T11:47:35;19.73;;;13.07;;
71969;SDS011;59838;52.152;5.436;2023-05-07T11:50:05;15.85;;;12.65;;
71969;SDS011;59838;52.152;5.436;2023-05-07T11:52:34;17.08;;;12.00;;
71969;SDS011;59838;52.152;5.436;2023-05-07T11:55:02;16.48;;;12.25;;
71969;SDS011;59838;52.152;5.436;2023-05-07T11:57:30;18.20;;;12.98;;
71969;SDS011;59838;52.152;5.436;2023-05-07T11:59:59;15.40;;;11.10;;
71969;SDS011;59838;52.152;5.436;2023-05-07T12:02:28;15.18;;;11.23;;
71969;SDS011;59838;52.152;5.436;2023-05-07T12:04:54;18.15;;;12.25;;
71969;SDS011;59838;52.152;5.436;2023-05-07T12:07:21;14.63;;;11.52;;
71969;SDS011;59838;52.152;5.436;2023-05-07T12:09:50;13.95;;;11.45;;
71969;SDS011;59838;52.152;5.436;2023-05-07T12:12:16;18.47;;;11.73;;
71969;SDS011;59838;52.152;5.436;2023-05-07T12:14:44;16.67;;;12.70;;
71969;SDS011;59838;52.152;5.436;2023-05-07T12:17:12;15.00;;;11.82;;
71969;SDS011;59838;52.152;5.436;2023-05-07T12:19:41;13.30;;;11.55;;
71969;SDS011;59838;52.152;5.436;2023-05-07T12:22:08;15.10;;;11.10;;
71969;SDS011;59838;52.152;5.436;2023-05-07T12:24:43;17.27;;;11.70;;
71969;SDS011;59838;52.152;5.436;2023-05-07T12:27:10;15.05;;;11.15;;
71969;SDS011;59838;52.152;5.436;2023-05-07T12:29:37;14.18;;;10.98;;
71969;SDS011;59838;52.152;5.436;2023-05-07T12:32:06;14.85;;;12.43;;
71969;SDS011;59838;52.152;5.436;2023-05-07T12:34:33;13.90;;;11.73;;
71969;SDS011;59838;52.152;5.436;2023-05-07T12:37:01;14.90;;;11.37;;
71969;SDS011;59838;52.152;5.436;2023-05-07T12:39:29;14.57;;;11.77;;
71969;SDS011;59838;52.152;5.436;2023-05-07T12:41:56;12.70;;;9.93;;
71969;SDS011;59838;52.152;5.436;2023-05-07T12:44:31;17.73;;;10.73;;
71969;SDS011;59838;52.152;5.436;2023-05-07T12:47:01;12.70;;;11.40;;
71969;SDS011;59838;52.152;5.436;2023-05-07T12:49:28;12.33;;;10.60;;
71969;SDS011;59838;52.152;5.436;2023-05-07T12:51:54;11.30;;;9.05;;
71969;SDS011;59838;52.152;5.436;2023-05-07T12:54:29;10.55;;;9.35;;
71969;SDS011;59838;52.152;5.436;2023-05-07T12:57:04;12.35;;;9.27;;
71969;SDS011;59838;52.152;5.436;2023-05-07T12:59:39;14.13;;;9.95;;
71969;SDS011;59838;52.152;5.436;2023-05-07T13:02:07;14.07;;;8.47;;
71969;SDS011;59838;52.152;5.436;2023-05-07T13:04:35;15.65;;;8.68;;
71969;SDS011;59838;52.152;5.436;2023-05-07T13:07:01;15.75;;;9.43;;
71969;SDS011;59838;52.152;5.436;2023-05-07T13:09:28;10.50;;;7.93;;
71969;SDS011;59838;52.152;5.436;2023-05-07T13:11:55;10.70;;;8.85;;
71969;SDS011;59838;52.152;5.436;2023-05-07T13:14:22;11.33;;;8.87;;
71969;SDS011;59838;52.152;5.436;2023-05-07T13:16:48;12.00;;;8.85;;
71969;SDS011;59838;52.152;5.436;2023-05-07T13:19:15;10.73;;;9.27;;
71969;SDS011;59838;52.152;5.436;2023-05-07T13:21:42;11.85;;;9.18;;
71969;SDS011;59838;52.152;5.436;2023-05-07T13:24:08;14.55;;;10.02;;
71969;SDS011;59838;52.152;5.436;2023-05-07T13:26:35;12.63;;;9.90;;
71969;SDS011;59838;52.152;5.436;2023-05-07T13:29:01;10.93;;;9.27;;
71969;SDS011;59838;52.152;5.436;2023-05-07T13:31:28;12.00;;;9.57;;
71969;SDS011;59838;52.152;5.436;2023-05-07T13:33:54;10.45;;;9.30;;
71969;SDS011;59838;52.152;5.436;2023-05-07T13:36:22;10.88;;;9.65;;
71969;SDS011;59838;52.152;5.436;2023-05-07T13:38:49;14.60;;;10.10;;
71969;SDS011;59838;52.152;5.436;2023-05-07T13:41:17;10.85;;;9.70;;
71969;SDS011;59838;52.152;5.436;2023-05-07T13:43:44;11.70;;;9.25;;
71969;SDS011;59838;52.152;5.436;2023-05-07T13:46:10;12.57;;;9.88;;
71969;SDS011;59838;52.152;5.436;2023-05-07T13:48:37;13.80;;;10.40;;
71969;SDS011;59838;52.152;5.436;2023-05-07T13:51:03;14.40;;;10.67;;
71969;SDS011;59838;52.152;5.436;2023-05-07T13:53:30;13.70;;;10.48;;
71969;SDS011;59838;52.152;5.436;2023-05-07T13:55:57;14.32;;;10.10;;
71969;SDS011;59838;52.152;5.436;2023-05-07T13:58:23;19.80;;;10.95;;
71969;SDS011;59838;52.152;5.436;2023-05-07T14:00:50;11.52;;;10.27;;
71969;SDS011;59838;52.152;5.436;2023-05-07T14:03:17;17.47;;;10.33;;
71969;SDS011;59838;52.152;5.436;2023-05-07T14:05:46;26.65;;;12.27;;
71969;SDS011;59838;52.152;5.436;2023-05-07T14:08:15;15.00;;;10.45;;
71969;SDS011;59838;52.152;5.436;2023-05-07T14:10:43;16.35;;;10.55;;
71969;SDS011;59838;52.152;5.436;2023-05-07T14:13:10;15.13;;;10.55;;
71969;SDS011;59838;52.152;5.436;2023-05-07T14:15:37;14.23;;;9.47;;
71969;SDS011;59838;52.152;5.436;2023-05-07T14:18:04;15.30;;;10.00;;
71969;SDS011;59838;52.152;5.436;2023-05-07T14:20:31;14.82;;;10.52;;
71969;SDS011;59838;52.152;5.436;2023-05-07T14:22:58;12.10;;;9.60;;
71969;SDS011;59838;52.152;5.436;2023-05-07T14:25:25;15.73;;;10.43;;
71969;SDS011;59838;52.152;5.436;2023-05-07T14:27:51;12.33;;;10.23;;
71969;SDS011;59838;52.152;5.436;2023-05-07T14:30:17;13.40;;;10.40;;
71969;SDS011;59838;52.152;5.436;2023-05-07T14:32:44;14.73;;;10.30;;
71969;SDS011;59838;52.152;5.436;2023-05-07T14:35:10;16.20;;;10.18;;
71969;SDS011;59838;52.152;5.436;2023-05-07T14:37:37;10.50;;;8.80;;
71969;SDS011;59838;52.152;5.436;2023-05-07T14:40:04;19.47;;;9.83;;
71969;SDS011;59838;52.152;5.436;2023-05-07T14:42:31;13.02;;;9.15;;
71969;SDS011;59838;52.152;5.436;2023-05-07T14:44:57;9.68;;;8.57;;
71969;SDS011;59838;52.152;5.436;2023-05-07T14:47:24;20.70;;;9.85;;